sensor_id;sensor_type;location;lat;lon;timestamp;P1;durP1;ratioP1;P2;durP2;ratioP2
21501;SDS011;27639;48.674;9.242;2023-11-22T00:00:15;13.02;;;6.60;;
21501;SDS011;27639;48.674;9.242;2023-11-22T00:02:41;12.23;;;7.28;;
21501;SDS011;27639;48.674;9.242;2023-11-22T00:05:06;11.07;;;6.55;;
21501;SDS011;27639;48.674;9.242;2023-11-22T00:07:32;12.57;;;6.13;;
21501;SDS011;27639;48.674;9.242;2023-11-22T00:09:58;11.68;;;6.43;;
21501;SDS011;27639;48.674;9.242;2023-11-22T00:12:26;13.38;;;6.57;;
21501;SDS011;27639;48.674;9.242;2023-11-22T00:14:52;11.00;;;6.53;;
21501;SDS011;27639;48.674;9.242;2023-11-22T00:17:18;11.75;;;6.80;;
21501;SDS011;27639;48.674;9.242;2023-11-22T00:19:44;11.77;;;6.75;;
21501;SDS011;27639;48.674;9.242;2023-11-22T00:22:10;10.77;;;6.97;;
21501;SDS011;27639;48.674;9.242;2023-11-22T00:24:38;10.82;;;5.90;;
21501;SDS011;27639;48.674;9.242;2023-11-22T00:27:04;10.27;;;6.70;;
21501;SDS011;27639;48.674;9.242;2023-11-22T00:29:30;11.40;;;6.13;;
21501;SDS011;27639;48.674;9.242;2023-11-22T00:31:55;11.95;;;6.95;;
21501;SDS011;27639;48.674;9.242;2023-11-22T00:34:21;10.15;;;6.28;;
21501;SDS011;27639;48.674;9.242;2023-11-22T00:36:48;6.90;;;4.18;;
21501;SDS011;27639;48.674;9.242;2023-11-22T00:39:14;5.43;;;2.40;;
21501;SDS011;27639;48.674;9.242;2023-11-22T00:41:39;4.25;;;2.00;;
21501;SDS011;27639;48.674;9.242;2023-11-22T00:44:05;3.60;;;1.85;;
21501;SDS011;27639;48.674;9.242;2023-11-22T00:46:34;3.53;;;1.73;;
21501;SDS011;27639;48.674;9.242;2023-11-22T00:48:59;3.53;;;1.88;;
21501;SDS011;27639;48.674;9.242;2023-11-22T00:51:25;3.25;;;1.63;;
21501;SDS011;27639;48.674;9.242;2023-11-22T00:53:51;4.13;;;2.28;;
21501;SDS011;27639;48.674;9.242;2023-11-22T00:56:17;4.18;;;2.53;;
21501;SDS011;27639;48.674;9.242;2023-11-22T00:58:42;4.30;;;2.60;;
21501;SDS011;27639;48.674;9.242;2023-11-22T01:01:08;4.40;;;2.83;;
21501;SDS011;27639;48.674;9.242;2023-11-22T01:03:33;4.55;;;2.95;;
21501;SDS011;27639;48.674;9.242;2023-11-22T01:06:00;4.78;;;3.05;;
21501;SDS011;27639;48.674;9.242;2023-11-22T01:08:25;4.57;;;3.08;;
21501;SDS011;27639;48.674;9.242;2023-11-22T01:10:51;5.88;;;3.60;;
21501;SDS011;27639;48.674;9.242;2023-11-22T01:13:17;5.32;;;3.20;;
21501;SDS011;27639;48.674;9.242;2023-11-22T01:15:43;5.68;;;3.50;;
21501;SDS011;27639;48.674;9.242;2023-11-22T01:18:09;5.47;;;3.50;;
21501;SDS011;27639;48.674;9.242;2023-11-22T01:20:35;5.05;;;3.42;;
21501;SDS011;27639;48.674;9.242;2023-11-22T01:23:01;5.90;;;3.58;;
21501;SDS011;27639;48.674;9.242;2023-11-22T01:25:26;5.30;;;3.60;;
21501;SDS011;27639;48.674;9.242;2023-11-22T01:27:53;6.55;;;4.18;;
21501;SDS011;27639;48.674;9.242;2023-11-22T01:30:18;5.70;;;3.90;;
21501;SDS011;27639;48.674;9.242;2023-11-22T01:32:44;6.15;;;3.80;;
21501;SDS011;27639;48.674;9.242;2023-11-22T01:35:10;6.13;;;4.45;;
21501;SDS011;27639;48.674;9.242;2023-11-22T01:37:35;5.10;;;3.60;;
21501;SDS011;27639;48.674;9.242;2023-11-22T01:40:01;7.00;;;4.40;;
21501;SDS011;27639;48.674;9.242;2023-11-22T01:42:28;6.05;;;3.60;;
21501;SDS011;27639;48.674;9.242;2023-11-22T01:44:54;5.88;;;3.90;;
21501;SDS011;27639;48.674;9.242;2023-11-22T01:47:19;5.53;;;3.58;;
21501;SDS011;27639;48.674;9.242;2023-11-22T01:49:46;5.50;;;3.53;;
21501;SDS011;27639;48.674;9.242;2023-11-22T01:52:12;6.13;;;3.72;;
21501;SDS011;27639;48.674;9.242;2023-11-22T01:54:38;5.32;;;3.33;;
21501;SDS011;27639;48.674;9.242;2023-11-22T01:57:04;7.43;;;3.90;;
21501;SDS011;27639;48.674;9.242;2023-11-22T01:59:32;6.22;;;4.10;;
21501;SDS011;27639;48.674;9.242;2023-11-22T02:01:58;6.32;;;4.10;;
21501;SDS011;27639;48.674;9.242;2023-11-22T02:04:24;5.88;;;3.92;;
21501;SDS011;27639;48.674;9.242;2023-11-22T02:06:50;7.60;;;3.60;;
21501;SDS011;27639;48.674;9.242;2023-11-22T02:09:16;6.75;;;3.90;;
21501;SDS011;27639;48.674;9.242;2023-11-22T02:11:43;5.88;;;3.92;;
21501;SDS011;27639;48.674;9.242;2023-11-22T02:14:10;6.32;;;4.10;;
21501;SDS011;27639;48.674;9.242;2023-11-22T02:16:36;6.53;;;3.70;;
21501;SDS011;27639;48.674;9.242;2023-11-22T02:19:04;6.47;;;4.28;;
21501;SDS011;27639;48.674;9.242;2023-11-22T02:21:32;6.00;;;4.28;;
21501;SDS011;27639;48.674;9.242;2023-11-22T02:23:58;6.93;;;4.63;;
21501;SDS011;27639;48.674;9.242;2023-11-22T02:26:24;6.85;;;4.90;;
21501;SDS011;27639;48.674;9.242;2023-11-22T02:28:49;5.95;;;3.92;;
21501;SDS011;27639;48.674;9.242;2023-11-22T02:31:16;6.22;;;4.25;;
21501;SDS011;27639;48.674;9.242;2023-11-22T02:33:41;7.28;;;4.35;;
21501;SDS011;27639;48.674;9.242;2023-11-22T02:36:07;6.80;;;3.60;;
21501;SDS011;27639;48.674;9.242;2023-11-22T02:38:33;7.07;;;4.20;;
21501;SDS011;27639;48.674;9.242;2023-11-22T02:41:00;5.75;;;3.80;;
21501;SDS011;27639;48.674;9.242;2023-11-22T02:43:26;6.75;;;3.67;;
21501;SDS011;27639;48.674;9.242;2023-11-22T02:45:52;5.95;;;4.05;;
21501;SDS011;27639;48.674;9.242;2023-11-22T02:48:18;5.28;;;3.75;;
21501;SDS011;27639;48.674;9.242;2023-11-22T02:50:44;5.40;;;3.58;;
21501;SDS011;27639;48.674;9.242;2023-11-22T02:53:09;5.15;;;3.25;;
21501;SDS011;27639;48.674;9.242;2023-11-22T02:55:35;5.47;;;3.75;;
21501;SDS011;27639;48.674;9.242;2023-11-22T02:58:01;5.80;;;3.85;;
21501;SDS011;27639;48.674;9.242;2023-11-22T03:00:27;6.60;;;3.80;;
21501;SDS011;27639;48.674;9.242;2023-11-22T03:02:54;6.88;;;4.00;;
21501;SDS011;27639;48.674;9.242;2023-11-22T03:05:21;6.90;;;3.97;;
21501;SDS011;27639;48.674;9.242;2023-11-22T03:07:47;5.88;;;3.78;;
21501;SDS011;27639;48.674;9.242;2023-11-22T03:10:13;6.15;;;3.63;;
21501;SDS011;27639;48.674;9.242;2023-11-22T03:12:39;5.80;;;3.85;;
21501;SDS011;27639;48.674;9.242;2023-11-22T03:15:04;6.32;;;3.88;;
21501;SDS011;27639;48.674;9.242;2023-11-22T03:17:31;6.78;;;3.65;;
21501;SDS011;27639;48.674;9.242;2023-11-22T03:19:58;6.32;;;3.95;;
21501;SDS011;27639;48.674;9.242;2023-11-22T03:22:24;5.78;;;3.83;;
21501;SDS011;27639;48.674;9.242;2023-11-22T03:24:50;6.18;;;3.55;;
21501;SDS011;27639;48.674;9.242;2023-11-22T03:27:16;5.82;;;3.65;;
21501;SDS011;27639;48.674;9.242;2023-11-22T03:29:42;6.30;;;3.85;;
21501;SDS011;27639;48.674;9.242;2023-11-22T03:32:09;6.47;;;3.72;;
21501;SDS011;27639;48.674;9.242;2023-11-22T03:34:36;5.50;;;3.80;;
21501;SDS011;27639;48.674;9.242;2023-11-22T03:37:01;6.35;;;3.67;;
21501;SDS011;27639;48.674;9.242;2023-11-22T03:39:27;6.22;;;3.85;;
21501;SDS011;27639;48.674;9.242;2023-11-22T03:41:53;5.40;;;3.40;;
21501;SDS011;27639;48.674;9.242;2023-11-22T03:44:18;6.05;;;3.80;;
21501;SDS011;27639;48.674;9.242;2023-11-22T03:46:44;5.95;;;3.75;;
21501;SDS011;27639;48.674;9.242;2023-11-22T03:49:09;5.78;;;3.47;;
21501;SDS011;27639;48.674;9.242;2023-11-22T03:51:35;5.15;;;3.20;;
21501;SDS011;27639;48.674;9.242;2023-11-22T03:54:01;6.20;;;4.10;;
21501;SDS011;27639;48.674;9.242;2023-11-22T03:56:28;7.15;;;3.95;;
21501;SDS011;27639;48.674;9.242;2023-11-22T03:58:54;5.57;;;3.53;;
21501;SDS011;27639;48.674;9.242;2023-11-22T04:01:20;6.28;;;3.67;;
21501;SDS011;27639;48.674;9.242;2023-11-22T04:03:46;7.28;;;3.83;;
21501;SDS011;27639;48.674;9.242;2023-11-22T04:06:15;6.80;;;3.80;;
21501;SDS011;27639;48.674;9.242;2023-11-22T04:08:42;6.00;;;3.80;;
21501;SDS011;27639;48.674;9.242;2023-11-22T04:11:12;7.20;;;3.83;;
21501;SDS011;27639;48.674;9.242;2023-11-22T04:13:38;6.95;;;3.80;;
21501;SDS011;27639;48.674;9.242;2023-11-22T04:16:04;6.68;;;4.00;;
21501;SDS011;27639;48.674;9.242;2023-11-22T04:18:33;7.60;;;3.33;;
21501;SDS011;27639;48.674;9.242;2023-11-22T04:21:02;6.40;;;3.72;;
21501;SDS011;27639;48.674;9.242;2023-11-22T04:23:29;6.57;;;3.63;;
21501;SDS011;27639;48.674;9.242;2023-11-22T04:26:01;7.18;;;3.95;;
21501;SDS011;27639;48.674;9.242;2023-11-22T04:28:27;5.80;;;3.70;;
21501;SDS011;27639;48.674;9.242;2023-11-22T04:30:56;8.15;;;3.95;;
21501;SDS011;27639;48.674;9.242;2023-11-22T04:33:22;5.78;;;3.80;;
21501;SDS011;27639;48.674;9.242;2023-11-22T04:35:48;6.72;;;3.83;;
21501;SDS011;27639;48.674;9.242;2023-11-22T04:38:14;6.30;;;4.05;;
21501;SDS011;27639;48.674;9.242;2023-11-22T04:40:40;5.95;;;3.80;;
21501;SDS011;27639;48.674;9.242;2023-11-22T04:43:07;5.90;;;3.90;;
21501;SDS011;27639;48.674;9.242;2023-11-22T04:45:33;6.55;;;3.65;;
21501;SDS011;27639;48.674;9.242;2023-11-22T04:47:59;5.95;;;4.03;;
21501;SDS011;27639;48.674;9.242;2023-11-22T04:50:25;7.53;;;3.83;;
21501;SDS011;27639;48.674;9.242;2023-11-22T04:52:51;7.38;;;3.72;;
21501;SDS011;27639;48.674;9.242;2023-11-22T04:55:16;7.28;;;4.40;;
21501;SDS011;27639;48.674;9.242;2023-11-22T04:57:44;6.20;;;4.07;;
21501;SDS011;27639;48.674;9.242;2023-11-22T05:00:10;7.00;;;4.00;;
21501;SDS011;27639;48.674;9.242;2023-11-22T05:02:36;5.72;;;3.55;;
21501;SDS011;27639;48.674;9.242;2023-11-22T05:05:02;5.85;;;3.83;;
21501;SDS011;27639;48.674;9.242;2023-11-22T05:07:28;5.63;;;3.80;;
21501;SDS011;27639;48.674;9.242;2023-11-22T05:09:54;6.20;;;3.92;;
21501;SDS011;27639;48.674;9.242;2023-11-22T05:12:20;6.25;;;4.00;;
21501;SDS011;27639;48.674;9.242;2023-11-22T05:14:45;5.65;;;3.83;;
21501;SDS011;27639;48.674;9.242;2023-11-22T05:17:11;6.13;;;4.07;;
21501;SDS011;27639;48.674;9.242;2023-11-22T05:19:37;6.25;;;3.55;;
21501;SDS011;27639;48.674;9.242;2023-11-22T05:22:03;5.93;;;3.70;;
21501;SDS011;27639;48.674;9.242;2023-11-22T05:24:29;7.22;;;4.10;;
21501;SDS011;27639;48.674;9.242;2023-11-22T05:26:54;7.28;;;4.60;;
21501;SDS011;27639;48.674;9.242;2023-11-22T05:29:20;5.47;;;3.63;;
21501;SDS011;27639;48.674;9.242;2023-11-22T05:31:46;6.05;;;3.90;;
21501;SDS011;27639;48.674;9.242;2023-11-22T05:34:12;5.63;;;3.95;;
21501;SDS011;27639;48.674;9.242;2023-11-22T05:36:38;5.47;;;3.42;;
21501;SDS011;27639;48.674;9.242;2023-11-22T05:39:04;5.57;;;3.70;;
21501;SDS011;27639;48.674;9.242;2023-11-22T05:41:29;6.20;;;3.95;;
21501;SDS011;27639;48.674;9.242;2023-11-22T05:43:56;6.03;;;3.63;;
21501;SDS011;27639;48.674;9.242;2023-11-22T05:46:22;5.90;;;3.65;;
21501;SDS011;27639;48.674;9.242;2023-11-22T05:48:50;5.72;;;3.63;;
21501;SDS011;27639;48.674;9.242;2023-11-22T05:51:16;6.05;;;3.70;;
21501;SDS011;27639;48.674;9.242;2023-11-22T05:53:42;6.30;;;3.95;;
21501;SDS011;27639;48.674;9.242;2023-11-22T05:56:07;6.03;;;3.78;;
21501;SDS011;27639;48.674;9.242;2023-11-22T05:58:36;6.03;;;3.70;;
21501;SDS011;27639;48.674;9.242;2023-11-22T06:01:03;4.97;;;3.38;;
21501;SDS011;27639;48.674;9.242;2023-11-22T06:03:29;5.93;;;3.63;;
21501;SDS011;27639;48.674;9.242;2023-11-22T06:05:55;6.47;;;3.80;;
21501;SDS011;27639;48.674;9.242;2023-11-22T06:08:22;7.10;;;4.13;;
21501;SDS011;27639;48.674;9.242;2023-11-22T06:10:48;5.45;;;3.40;;
21501;SDS011;27639;48.674;9.242;2023-11-22T06:13:14;6.15;;;3.38;;
21501;SDS011;27639;48.674;9.242;2023-11-22T06:15:39;5.25;;;3.25;;
21501;SDS011;27639;48.674;9.242;2023-11-22T06:18:05;6.35;;;3.75;;
21501;SDS011;27639;48.674;9.242;2023-11-22T06:20:31;6.53;;;3.63;;
21501;SDS011;27639;48.674;9.242;2023-11-22T06:22:57;6.57;;;3.80;;
21501;SDS011;27639;48.674;9.242;2023-11-22T06:25:22;6.72;;;4.05;;
21501;SDS011;27639;48.674;9.242;2023-11-22T06:27:48;6.20;;;3.40;;
21501;SDS011;27639;48.674;9.242;2023-11-22T06:30:14;7.15;;;4.00;;
21501;SDS011;27639;48.674;9.242;2023-11-22T06:32:40;6.15;;;3.92;;
21501;SDS011;27639;48.674;9.242;2023-11-22T06:35:07;5.95;;;3.80;;
21501;SDS011;27639;48.674;9.242;2023-11-22T06:37:40;6.88;;;4.00;;
21501;SDS011;27639;48.674;9.242;2023-11-22T06:40:06;6.60;;;3.83;;
21501;SDS011;27639;48.674;9.242;2023-11-22T06:42:33;6.70;;;3.70;;
21501;SDS011;27639;48.674;9.242;2023-11-22T06:44:59;6.13;;;4.10;;
21501;SDS011;27639;48.674;9.242;2023-11-22T06:47:25;6.57;;;4.07;;
21501;SDS011;27639;48.674;9.242;2023-11-22T06:49:52;6.78;;;4.13;;
21501;SDS011;27639;48.674;9.242;2023-11-22T06:52:18;6.03;;;3.92;;
21501;SDS011;27639;48.674;9.242;2023-11-22T06:54:44;6.90;;;4.60;;
21501;SDS011;27639;48.674;9.242;2023-11-22T06:57:09;6.38;;;4.20;;
21501;SDS011;27639;48.674;9.242;2023-11-22T06:59:35;7.30;;;4.50;;
21501;SDS011;27639;48.674;9.242;2023-11-22T07:02:00;7.20;;;4.50;;
21501;SDS011;27639;48.674;9.242;2023-11-22T07:04:26;7.07;;;4.25;;
21501;SDS011;27639;48.674;9.242;2023-11-22T07:06:52;6.93;;;4.65;;
21501;SDS011;27639;48.674;9.242;2023-11-22T07:09:18;7.55;;;4.10;;
21501;SDS011;27639;48.674;9.242;2023-11-22T07:11:44;6.93;;;4.20;;
21501;SDS011;27639;48.674;9.242;2023-11-22T07:14:10;7.15;;;4.45;;
21501;SDS011;27639;48.674;9.242;2023-11-22T07:16:35;6.85;;;4.32;;
21501;SDS011;27639;48.674;9.242;2023-11-22T07:19:02;7.63;;;4.32;;
21501;SDS011;27639;48.674;9.242;2023-11-22T07:21:28;6.72;;;4.13;;
21501;SDS011;27639;48.674;9.242;2023-11-22T07:23:55;8.60;;;4.38;;
21501;SDS011;27639;48.674;9.242;2023-11-22T07:26:20;7.82;;;4.70;;
21501;SDS011;27639;48.674;9.242;2023-11-22T07:28:46;7.13;;;4.55;;
21501;SDS011;27639;48.674;9.242;2023-11-22T07:31:12;6.72;;;4.22;;
21501;SDS011;27639;48.674;9.242;2023-11-22T07:33:37;5.90;;;3.97;;
21501;SDS011;27639;48.674;9.242;2023-11-22T07:36:06;7.28;;;4.35;;
21501;SDS011;27639;48.674;9.242;2023-11-22T07:38:32;8.70;;;4.57;;
21501;SDS011;27639;48.674;9.242;2023-11-22T07:40:59;5.78;;;3.90;;
21501;SDS011;27639;48.674;9.242;2023-11-22T07:43:25;5.97;;;3.50;;
21501;SDS011;27639;48.674;9.242;2023-11-22T07:45:50;5.68;;;3.70;;
21501;SDS011;27639;48.674;9.242;2023-11-22T07:48:16;5.57;;;3.65;;
21501;SDS011;27639;48.674;9.242;2023-11-22T07:50:42;7.50;;;4.18;;
21501;SDS011;27639;48.674;9.242;2023-11-22T07:53:09;5.55;;;3.92;;
21501;SDS011;27639;48.674;9.242;2023-11-22T07:55:36;6.03;;;3.30;;
21501;SDS011;27639;48.674;9.242;2023-11-22T07:58:06;5.57;;;3.42;;
21501;SDS011;27639;48.674;9.242;2023-11-22T08:00:33;7.07;;;3.67;;
21501;SDS011;27639;48.674;9.242;2023-11-22T08:03:02;5.75;;;3.72;;
21501;SDS011;27639;48.674;9.242;2023-11-22T08:05:30;6.32;;;4.13;;
21501;SDS011;27639;48.674;9.242;2023-11-22T08:08:02;3.92;;;2.53;;
21501;SDS011;27639;48.674;9.242;2023-11-22T08:10:31;7.03;;;3.85;;
21501;SDS011;27639;48.674;9.242;2023-11-22T08:12:57;5.63;;;3.63;;
21501;SDS011;27639;48.674;9.242;2023-11-22T08:15:22;5.60;;;3.17;;
21501;SDS011;27639;48.674;9.242;2023-11-22T08:17:49;7.25;;;4.00;;
21501;SDS011;27639;48.674;9.242;2023-11-22T08:20:14;6.25;;;3.33;;
21501;SDS011;27639;48.674;9.242;2023-11-22T08:22:42;6.07;;;3.70;;
21501;SDS011;27639;48.674;9.242;2023-11-22T08:25:14;5.43;;;3.45;;
21501;SDS011;27639;48.674;9.242;2023-11-22T08:27:40;7.32;;;3.58;;
21501;SDS011;27639;48.674;9.242;2023-11-22T08:30:10;6.28;;;3.75;;
21501;SDS011;27639;48.674;9.242;2023-11-22T08:32:41;6.20;;;3.88;;
21501;SDS011;27639;48.674;9.242;2023-11-22T08:35:16;6.55;;;3.95;;
21501;SDS011;27639;48.674;9.242;2023-11-22T08:37:41;7.45;;;3.95;;
21501;SDS011;27639;48.674;9.242;2023-11-22T08:40:07;6.55;;;4.00;;
21501;SDS011;27639;48.674;9.242;2023-11-22T08:42:36;6.93;;;4.40;;
21501;SDS011;27639;48.674;9.242;2023-11-22T08:45:04;6.13;;;3.78;;
21501;SDS011;27639;48.674;9.242;2023-11-22T08:47:30;6.65;;;3.72;;
21501;SDS011;27639;48.674;9.242;2023-11-22T08:49:56;5.95;;;3.58;;
21501;SDS011;27639;48.674;9.242;2023-11-22T08:52:22;5.68;;;3.70;;
21501;SDS011;27639;48.674;9.242;2023-11-22T08:54:48;7.38;;;3.58;;
21501;SDS011;27639;48.674;9.242;2023-11-22T08:57:15;6.47;;;3.70;;
21501;SDS011;27639;48.674;9.242;2023-11-22T08:59:40;6.20;;;3.92;;
21501;SDS011;27639;48.674;9.242;2023-11-22T09:02:06;6.40;;;3.80;;
21501;SDS011;27639;48.674;9.242;2023-11-22T09:04:37;8.55;;;3.90;;
21501;SDS011;27639;48.674;9.242;2023-11-22T09:07:03;7.57;;;4.03;;
21501;SDS011;27639;48.674;9.242;2023-11-22T09:09:30;7.35;;;3.30;;
21501;SDS011;27639;48.674;9.242;2023-11-22T09:11:56;5.70;;;3.60;;
21501;SDS011;27639;48.674;9.242;2023-11-22T09:14:23;5.28;;;3.53;;
21501;SDS011;27639;48.674;9.242;2023-11-22T09:16:49;7.90;;;3.90;;
21501;SDS011;27639;48.674;9.242;2023-11-22T09:19:19;6.00;;;4.15;;
21501;SDS011;27639;48.674;9.242;2023-11-22T09:21:49;6.43;;;3.70;;
21501;SDS011;27639;48.674;9.242;2023-11-22T09:24:15;6.65;;;3.85;;
21501;SDS011;27639;48.674;9.242;2023-11-22T09:26:41;6.55;;;3.80;;
21501;SDS011;27639;48.674;9.242;2023-11-22T09:29:08;5.80;;;3.80;;
21501;SDS011;27639;48.674;9.242;2023-11-22T09:31:35;6.32;;;3.70;;
21501;SDS011;27639;48.674;9.242;2023-11-22T09:34:01;6.43;;;3.78;;
21501;SDS011;27639;48.674;9.242;2023-11-22T09:36:28;6.65;;;3.78;;
21501;SDS011;27639;48.674;9.242;2023-11-22T09:38:57;6.55;;;3.83;;
21501;SDS011;27639;48.674;9.242;2023-11-22T09:41:23;6.82;;;4.30;;
21501;SDS011;27639;48.674;9.242;2023-11-22T09:43:50;7.95;;;4.03;;
21501;SDS011;27639;48.674;9.242;2023-11-22T09:46:15;6.45;;;4.00;;
21501;SDS011;27639;48.674;9.242;2023-11-22T09:48:44;5.82;;;4.00;;
21501;SDS011;27639;48.674;9.242;2023-11-22T09:51:20;7.70;;;4.00;;
21501;SDS011;27639;48.674;9.242;2023-11-22T09:53:56;6.30;;;4.03;;
21501;SDS011;27639;48.674;9.242;2023-11-22T09:56:25;6.95;;;4.00;;
21501;SDS011;27639;48.674;9.242;2023-11-22T09:58:51;8.13;;;4.30;;
21501;SDS011;27639;48.674;9.242;2023-11-22T10:01:24;7.43;;;4.47;;
21501;SDS011;27639;48.674;9.242;2023-11-22T10:03:53;7.22;;;3.88;;
21501;SDS011;27639;48.674;9.242;2023-11-22T10:06:19;6.78;;;4.30;;
21501;SDS011;27639;48.674;9.242;2023-11-22T10:08:45;7.90;;;4.32;;
21501;SDS011;27639;48.674;9.242;2023-11-22T10:11:17;5.97;;;3.72;;
21501;SDS011;27639;48.674;9.242;2023-11-22T10:13:43;6.63;;;3.70;;
21501;SDS011;27639;48.674;9.242;2023-11-22T10:16:13;6.57;;;4.35;;
21501;SDS011;27639;48.674;9.242;2023-11-22T10:18:47;6.78;;;4.20;;
21501;SDS011;27639;48.674;9.242;2023-11-22T10:21:26;8.15;;;3.97;;
21501;SDS011;27639;48.674;9.242;2023-11-22T10:23:56;11.02;;;4.43;;
21501;SDS011;27639;48.674;9.242;2023-11-22T10:26:22;7.78;;;4.30;;
21501;SDS011;27639;48.674;9.242;2023-11-22T10:28:53;6.70;;;4.50;;
21501;SDS011;27639;48.674;9.242;2023-11-22T10:31:19;7.57;;;4.60;;
21501;SDS011;27639;48.674;9.242;2023-11-22T10:33:47;6.13;;;4.00;;
21501;SDS011;27639;48.674;9.242;2023-11-22T10:36:12;7.55;;;4.05;;
21501;SDS011;27639;48.674;9.242;2023-11-22T10:38:46;5.90;;;3.85;;
21501;SDS011;27639;48.674;9.242;2023-11-22T10:41:12;6.68;;;3.97;;
21501;SDS011;27639;48.674;9.242;2023-11-22T10:43:38;7.82;;;4.53;;
21501;SDS011;27639;48.674;9.242;2023-11-22T10:46:06;10.60;;;4.47;;
21501;SDS011;27639;48.674;9.242;2023-11-22T10:48:35;6.47;;;4.03;;
21501;SDS011;27639;48.674;9.242;2023-11-22T10:51:01;6.25;;;4.25;;
21501;SDS011;27639;48.674;9.242;2023-11-22T10:53:32;8.35;;;4.25;;
21501;SDS011;27639;48.674;9.242;2023-11-22T10:56:12;8.40;;;4.82;;
21501;SDS011;27639;48.674;9.242;2023-11-22T10:58:49;6.68;;;4.10;;
21501;SDS011;27639;48.674;9.242;2023-11-22T11:03:45;6.90;;;4.20;;
21501;SDS011;27639;48.674;9.242;2023-11-22T11:06:20;8.50;;;4.20;;
21501;SDS011;27639;48.674;9.242;2023-11-22T11:08:53;7.30;;;4.32;;
21501;SDS011;27639;48.674;9.242;2023-11-22T11:11:24;6.90;;;4.70;;
21501;SDS011;27639;48.674;9.242;2023-11-22T11:13:52;6.95;;;4.65;;
21501;SDS011;27639;48.674;9.242;2023-11-22T11:16:18;8.70;;;4.35;;
21501;SDS011;27639;48.674;9.242;2023-11-22T11:18:45;6.70;;;4.38;;
21501;SDS011;27639;48.674;9.242;2023-11-22T11:21:11;7.03;;;4.55;;
21501;SDS011;27639;48.674;9.242;2023-11-22T11:23:38;7.20;;;4.60;;
21501;SDS011;27639;48.674;9.242;2023-11-22T11:26:18;6.97;;;4.38;;
21501;SDS011;27639;48.674;9.242;2023-11-22T11:28:48;8.68;;;4.60;;
21501;SDS011;27639;48.674;9.242;2023-11-22T11:31:15;6.65;;;4.43;;
21501;SDS011;27639;48.674;9.242;2023-11-22T11:36:20;7.53;;;4.38;;
21501;SDS011;27639;48.674;9.242;2023-11-22T11:41:14;8.40;;;5.00;;
21501;SDS011;27639;48.674;9.242;2023-11-22T11:43:40;7.80;;;5.38;;
21501;SDS011;27639;48.674;9.242;2023-11-22T11:46:07;8.02;;;4.80;;
21501;SDS011;27639;48.674;9.242;2023-11-22T11:48:34;7.50;;;4.53;;
21501;SDS011;27639;48.674;9.242;2023-11-22T11:51:00;7.13;;;4.55;;
21501;SDS011;27639;48.674;9.242;2023-11-22T11:53:26;6.93;;;4.60;;
21501;SDS011;27639;48.674;9.242;2023-11-22T11:55:52;7.90;;;5.60;;
21501;SDS011;27639;48.674;9.242;2023-11-22T11:58:19;9.73;;;5.10;;
21501;SDS011;27639;48.674;9.242;2023-11-22T12:00:45;8.20;;;4.90;;
21501;SDS011;27639;48.674;9.242;2023-11-22T12:03:10;8.05;;;4.90;;
21501;SDS011;27639;48.674;9.242;2023-11-22T12:05:36;8.13;;;4.88;;
21501;SDS011;27639;48.674;9.242;2023-11-22T12:08:03;7.82;;;4.72;;
21501;SDS011;27639;48.674;9.242;2023-11-22T12:10:28;7.63;;;5.18;;
21501;SDS011;27639;48.674;9.242;2023-11-22T12:12:54;9.15;;;5.03;;
21501;SDS011;27639;48.674;9.242;2023-11-22T12:15:20;8.27;;;4.95;;
21501;SDS011;27639;48.674;9.242;2023-11-22T12:17:48;8.60;;;4.90;;
21501;SDS011;27639;48.674;9.242;2023-11-22T12:20:16;9.98;;;5.72;;
21501;SDS011;27639;48.674;9.242;2023-11-22T12:22:43;9.73;;;5.80;;
21501;SDS011;27639;48.674;9.242;2023-11-22T12:25:10;8.07;;;5.45;;
21501;SDS011;27639;48.674;9.242;2023-11-22T12:27:42;7.72;;;5.57;;
21501;SDS011;27639;48.674;9.242;2023-11-22T12:30:13;8.93;;;6.00;;
21501;SDS011;27639;48.674;9.242;2023-11-22T12:33:05;9.70;;;6.03;;
21501;SDS011;27639;48.674;9.242;2023-11-22T12:35:32;9.13;;;6.00;;
21501;SDS011;27639;48.674;9.242;2023-11-22T12:37:59;8.63;;;6.10;;
21501;SDS011;27639;48.674;9.242;2023-11-22T12:40:27;7.82;;;6.10;;
21501;SDS011;27639;48.674;9.242;2023-11-22T12:42:56;8.57;;;6.28;;
21501;SDS011;27639;48.674;9.242;2023-11-22T12:45:22;8.57;;;5.60;;
21501;SDS011;27639;48.674;9.242;2023-11-22T12:47:52;9.10;;;5.10;;
21501;SDS011;27639;48.674;9.242;2023-11-22T12:50:37;8.25;;;5.82;;
21501;SDS011;27639;48.674;9.242;2023-11-22T12:53:14;9.18;;;5.38;;
21501;SDS011;27639;48.674;9.242;2023-11-22T12:55:44;8.43;;;5.38;;
21501;SDS011;27639;48.674;9.242;2023-11-22T12:58:11;9.52;;;5.32;;
21501;SDS011;27639;48.674;9.242;2023-11-22T13:00:40;7.60;;;5.18;;
21501;SDS011;27639;48.674;9.242;2023-11-22T13:03:09;8.02;;;5.50;;
21501;SDS011;27639;48.674;9.242;2023-11-22T13:05:39;10.05;;;6.10;;
21501;SDS011;27639;48.674;9.242;2023-11-22T13:08:05;7.90;;;5.65;;
21501;SDS011;27639;48.674;9.242;2023-11-22T13:10:31;7.25;;;5.50;;
21501;SDS011;27639;48.674;9.242;2023-11-22T13:12:57;7.38;;;5.55;;
21501;SDS011;27639;48.674;9.242;2023-11-22T13:15:23;8.20;;;5.40;;
21501;SDS011;27639;48.674;9.242;2023-11-22T13:17:50;9.02;;;5.50;;
21501;SDS011;27639;48.674;9.242;2023-11-22T13:20:23;8.23;;;5.40;;
21501;SDS011;27639;48.674;9.242;2023-11-22T13:22:51;9.75;;;5.72;;
21501;SDS011;27639;48.674;9.242;2023-11-22T13:25:17;9.73;;;5.30;;
21501;SDS011;27639;48.674;9.242;2023-11-22T13:27:44;9.35;;;6.32;;
21501;SDS011;27639;48.674;9.242;2023-11-22T13:30:13;8.35;;;5.30;;
21501;SDS011;27639;48.674;9.242;2023-11-22T13:32:40;7.47;;;5.38;;
21501;SDS011;27639;48.674;9.242;2023-11-22T13:35:07;8.93;;;5.55;;
21501;SDS011;27639;48.674;9.242;2023-11-22T13:37:39;7.95;;;5.25;;
21501;SDS011;27639;48.674;9.242;2023-11-22T13:40:16;10.32;;;5.47;;
21501;SDS011;27639;48.674;9.242;2023-11-22T13:42:46;8.98;;;5.85;;
21501;SDS011;27639;48.674;9.242;2023-11-22T13:45:15;8.63;;;5.63;;
21501;SDS011;27639;48.674;9.242;2023-11-22T13:47:46;7.65;;;5.35;;
21501;SDS011;27639;48.674;9.242;2023-11-22T13:50:17;9.02;;;5.38;;
21501;SDS011;27639;48.674;9.242;2023-11-22T13:52:50;9.75;;;5.75;;
21501;SDS011;27639;48.674;9.242;2023-11-22T13:55:17;9.13;;;5.40;;
21501;SDS011;27639;48.674;9.242;2023-11-22T13:57:47;8.73;;;5.72;;
21501;SDS011;27639;48.674;9.242;2023-11-22T14:00:13;8.50;;;4.97;;
21501;SDS011;27639;48.674;9.242;2023-11-22T14:02:44;10.02;;;5.97;;
21501;SDS011;27639;48.674;9.242;2023-11-22T14:05:14;9.93;;;5.82;;
21501;SDS011;27639;48.674;9.242;2023-11-22T14:07:40;8.32;;;5.57;;
21501;SDS011;27639;48.674;9.242;2023-11-22T14:10:07;7.68;;;5.20;;
21501;SDS011;27639;48.674;9.242;2023-11-22T14:12:34;8.48;;;5.05;;
21501;SDS011;27639;48.674;9.242;2023-11-22T14:15:00;8.27;;;4.75;;
21501;SDS011;27639;48.674;9.242;2023-11-22T14:17:29;8.82;;;5.38;;
21501;SDS011;27639;48.674;9.242;2023-11-22T14:19:54;8.57;;;6.28;;
21501;SDS011;27639;48.674;9.242;2023-11-22T14:22:21;9.02;;;5.82;;
21501;SDS011;27639;48.674;9.242;2023-11-22T14:24:48;9.93;;;6.25;;
21501;SDS011;27639;48.674;9.242;2023-11-22T14:27:14;10.80;;;6.57;;
21501;SDS011;27639;48.674;9.242;2023-11-22T14:29:39;9.93;;;6.07;;
21501;SDS011;27639;48.674;9.242;2023-11-22T14:32:06;10.60;;;6.15;;
21501;SDS011;27639;48.674;9.242;2023-11-22T14:34:32;9.40;;;6.63;;
21501;SDS011;27639;48.674;9.242;2023-11-22T14:36:58;8.82;;;5.35;;
21501;SDS011;27639;48.674;9.242;2023-11-22T14:39:24;8.05;;;5.10;;
21501;SDS011;27639;48.674;9.242;2023-11-22T14:41:49;8.70;;;4.65;;
21501;SDS011;27639;48.674;9.242;2023-11-22T14:44:16;6.78;;;4.88;;
21501;SDS011;27639;48.674;9.242;2023-11-22T14:46:43;7.82;;;4.90;;
21501;SDS011;27639;48.674;9.242;2023-11-22T14:49:09;8.40;;;4.93;;
21501;SDS011;27639;48.674;9.242;2023-11-22T14:51:34;7.68;;;4.35;;
21501;SDS011;27639;48.674;9.242;2023-11-22T14:54:00;7.90;;;4.65;;